sensor_id;sensor_type;location;lat;lon;timestamp;P1;durP1;ratioP1;P2;durP2;ratioP2
36839;SDS011;24406;51.640;9.566;2022-10-31T00:00:34;14.88;;;8.90;;
36839;SDS011;24406;51.640;9.566;2022-10-31T00:05:35;18.27;;;10.25;;
36839;SDS011;24406;51.640;9.566;2022-10-31T00:10:37;17.50;;;10.25;;
36839;SDS011;24406;51.640;9.566;2022-10-31T00:15:41;15.00;;;9.27;;
36839;SDS011;24406;51.640;9.566;2022-10-31T00:20:42;15.45;;;9.00;;
36839;SDS011;24406;51.640;9.566;2022-10-31T00:25:44;16.75;;;9.52;;
36839;SDS011;24406;51.640;9.566;2022-10-31T00:30:46;16.30;;;10.50;;
36839;SDS011;24406;51.640;9.566;2022-10-31T00:35:49;13.45;;;9.52;;
36839;SDS011;24406;51.640;9.566;2022-10-31T00:40:50;18.73;;;9.73;;
36839;SDS011;24406;51.640;9.566;2022-10-31T00:45:53;13.32;;;8.93;;
36839;SDS011;24406;51.640;9.566;2022-10-31T00:50:58;22.23;;;9.43;;
36839;SDS011;24406;51.640;9.566;2022-10-31T00:56:00;12.48;;;9.48;;
36839;SDS011;24406;51.640;9.566;2022-10-31T01:01:03;22.02;;;9.73;;
36839;SDS011;24406;51.640;9.566;2022-10-31T01:06:06;42.30;;;11.85;;
36839;SDS011;24406;51.640;9.566;2022-10-31T01:11:10;14.57;;;9.90;;
36839;SDS011;24406;51.640;9.566;2022-10-31T01:16:16;12.65;;;9.55;;
36839;SDS011;24406;51.640;9.566;2022-10-31T01:21:18;16.85;;;9.32;;
36839;SDS011;24406;51.640;9.566;2022-10-31T01:26:23;15.98;;;10.65;;
36839;SDS011;24406;51.640;9.566;2022-10-31T01:31:29;40.25;;;10.98;;
36839;SDS011;24406;51.640;9.566;2022-10-31T01:36:33;18.70;;;10.70;;
36839;SDS011;24406;51.640;9.566;2022-10-31T01:41:36;22.95;;;11.82;;
36839;SDS011;24406;51.640;9.566;2022-10-31T01:46:40;17.98;;;12.32;;
36839;SDS011;24406;51.640;9.566;2022-10-31T01:51:46;20.98;;;11.82;;
36839;SDS011;24406;51.640;9.566;2022-10-31T01:56:51;15.68;;;11.30;;
36839;SDS011;24406;51.640;9.566;2022-10-31T02:01:56;19.48;;;11.60;;
36839;SDS011;24406;51.640;9.566;2022-10-31T02:06:59;19.25;;;11.77;;
36839;SDS011;24406;51.640;9.566;2022-10-31T02:12:04;13.40;;;10.13;;
36839;SDS011;24406;51.640;9.566;2022-10-31T02:17:08;12.85;;;10.05;;
36839;SDS011;24406;51.640;9.566;2022-10-31T02:22:11;13.30;;;9.77;;
36839;SDS011;24406;51.640;9.566;2022-10-31T02:27:21;16.40;;;10.15;;
36839;SDS011;24406;51.640;9.566;2022-10-31T02:37:54;16.75;;;10.57;;
36839;SDS011;24406;51.640;9.566;2022-10-31T02:43:02;12.90;;;10.32;;
36839;SDS011;24406;51.640;9.566;2022-10-31T02:48:09;11.02;;;9.50;;
36839;SDS011;24406;51.640;9.566;2022-10-31T02:53:15;9.80;;;8.80;;
36839;SDS011;24406;51.640;9.566;2022-10-31T02:58:17;14.60;;;9.95;;
36839;SDS011;24406;51.640;9.566;2022-10-31T03:03:23;22.23;;;11.15;;
36839;SDS011;24406;51.640;9.566;2022-10-31T03:08:29;19.33;;;11.57;;
36839;SDS011;24406;51.640;9.566;2022-10-31T03:13:39;21.02;;;12.27;;
36839;SDS011;24406;51.640;9.566;2022-10-31T03:18:45;20.88;;;11.27;;
36839;SDS011;24406;51.640;9.566;2022-10-31T03:23:50;19.43;;;12.13;;
36839;SDS011;24406;51.640;9.566;2022-10-31T03:28:54;42.78;;;14.48;;
36839;SDS011;24406;51.640;9.566;2022-10-31T03:33:59;62.35;;;15.35;;
36839;SDS011;24406;51.640;9.566;2022-10-31T03:39:04;25.90;;;13.50;;
36839;SDS011;24406;51.640;9.566;2022-10-31T03:44:07;22.23;;;11.68;;
36839;SDS011;24406;51.640;9.566;2022-10-31T03:49:14;34.38;;;12.50;;
36839;SDS011;24406;51.640;9.566;2022-10-31T03:54:19;24.10;;;12.82;;
36839;SDS011;24406;51.640;9.566;2022-10-31T03:59:25;24.20;;;11.57;;
36839;SDS011;24406;51.640;9.566;2022-10-31T04:04:30;61.25;;;12.57;;
36839;SDS011;24406;51.640;9.566;2022-10-31T04:09:33;17.90;;;12.18;;
36839;SDS011;24406;51.640;9.566;2022-10-31T04:14:36;38.33;;;12.65;;
36839;SDS011;24406;51.640;9.566;2022-10-31T04:19:41;40.08;;;14.93;;
36839;SDS011;24406;51.640;9.566;2022-10-31T04:24:43;64.28;;;19.55;;
36839;SDS011;24406;51.640;9.566;2022-10-31T04:29:48;28.40;;;15.65;;
36839;SDS011;24406;51.640;9.566;2022-10-31T04:34:52;44.67;;;17.15;;
36839;SDS011;24406;51.640;9.566;2022-10-31T04:39:53;25.40;;;16.38;;
36839;SDS011;24406;51.640;9.566;2022-10-31T04:45:13;28.33;;;16.65;;
36839;SDS011;24406;51.640;9.566;2022-10-31T04:50:17;63.50;;;17.13;;
36839;SDS011;24406;51.640;9.566;2022-10-31T04:55:19;21.45;;;15.57;;
36839;SDS011;24406;51.640;9.566;2022-10-31T05:00:39;42.03;;;17.75;;
36839;SDS011;24406;51.640;9.566;2022-10-31T05:05:42;29.60;;;16.67;;
36839;SDS011;24406;51.640;9.566;2022-10-31T05:10:43;50.85;;;16.88;;
36839;SDS011;24406;51.640;9.566;2022-10-31T05:15:45;43.08;;;15.95;;
36839;SDS011;24406;51.640;9.566;2022-10-31T05:21:06;38.80;;;16.23;;
36839;SDS011;24406;51.640;9.566;2022-10-31T05:26:09;45.63;;;15.98;;
36839;SDS011;24406;51.640;9.566;2022-10-31T05:31:11;21.77;;;15.52;;
36839;SDS011;24406;51.640;9.566;2022-10-31T05:36:13;36.17;;;15.77;;
36839;SDS011;24406;51.640;9.566;2022-10-31T05:41:19;24.70;;;15.52;;
36839;SDS011;24406;51.640;9.566;2022-10-31T05:46:21;23.98;;;14.48;;
36839;SDS011;24406;51.640;9.566;2022-10-31T05:51:56;18.83;;;14.30;;
36839;SDS011;24406;51.640;9.566;2022-10-31T05:57:07;30.73;;;14.40;;
36839;SDS011;24406;51.640;9.566;2022-10-31T06:02:08;21.55;;;14.88;;
36839;SDS011;24406;51.640;9.566;2022-10-31T06:07:46;36.13;;;15.40;;
36839;SDS011;24406;51.640;9.566;2022-10-31T06:12:48;34.67;;;17.58;;
36839;SDS011;24406;51.640;9.566;2022-10-31T06:17:58;37.75;;;16.13;;
36839;SDS011;24406;51.640;9.566;2022-10-31T06:23:08;78.72;;;17.42;;
36839;SDS011;24406;51.640;9.566;2022-10-31T06:28:09;93.20;;;17.73;;
36839;SDS011;24406;51.640;9.566;2022-10-31T06:33:27;31.33;;;16.55;;
36839;SDS011;24406;51.640;9.566;2022-10-31T06:38:32;22.25;;;16.58;;
36839;SDS011;24406;51.640;9.566;2022-10-31T06:43:34;26.50;;;17.05;;
36839;SDS011;24406;51.640;9.566;2022-10-31T06:48:58;24.23;;;16.73;;
36839;SDS011;24406;51.640;9.566;2022-10-31T06:54:11;56.10;;;19.13;;
36839;SDS011;24406;51.640;9.566;2022-10-31T06:59:12;157.32;;;19.45;;
36839;SDS011;24406;51.640;9.566;2022-10-31T07:04:40;104.85;;;22.63;;
36839;SDS011;24406;51.640;9.566;2022-10-31T07:09:46;106.65;;;19.58;;
36839;SDS011;24406;51.640;9.566;2022-10-31T07:14:50;41.90;;;17.73;;
36839;SDS011;24406;51.640;9.566;2022-10-31T07:19:52;44.22;;;18.90;;
36839;SDS011;24406;51.640;9.566;2022-10-31T07:24:55;32.80;;;17.52;;
36839;SDS011;24406;51.640;9.566;2022-10-31T07:30:19;22.83;;;15.98;;
36839;SDS011;24406;51.640;9.566;2022-10-31T07:35:24;44.67;;;17.33;;
36839;SDS011;24406;51.640;9.566;2022-10-31T07:40:33;41.75;;;18.77;;
36839;SDS011;24406;51.640;9.566;2022-10-31T07:45:36;79.25;;;18.13;;
36839;SDS011;24406;51.640;9.566;2022-10-31T07:50:56;21.35;;;15.98;;
36839;SDS011;24406;51.640;9.566;2022-10-31T07:56:28;60.22;;;18.85;;
36839;SDS011;24406;51.640;9.566;2022-10-31T08:01:30;31.85;;;18.08;;
36839;SDS011;24406;51.640;9.566;2022-10-31T08:06:52;65.45;;;22.13;;
36839;SDS011;24406;51.640;9.566;2022-10-31T08:12:02;22.52;;;15.55;;
36839;SDS011;24406;51.640;9.566;2022-10-31T08:17:07;83.53;;;19.05;;
36839;SDS011;24406;51.640;9.566;2022-10-31T08:22:18;52.97;;;17.88;;
36839;SDS011;24406;51.640;9.566;2022-10-31T08:27:21;26.35;;;17.23;;
36839;SDS011;24406;51.640;9.566;2022-10-31T08:32:22;31.05;;;19.10;;
36839;SDS011;24406;51.640;9.566;2022-10-31T08:37:30;30.23;;;19.08;;
36839;SDS011;24406;51.640;9.566;2022-10-31T08:42:33;26.88;;;21.30;;
36839;SDS011;24406;51.640;9.566;2022-10-31T08:47:36;30.73;;;20.33;;
36839;SDS011;24406;51.640;9.566;2022-10-31T08:52:38;31.83;;;23.75;;
36839;SDS011;24406;51.640;9.566;2022-10-31T08:57:41;38.53;;;20.70;;
36839;SDS011;24406;51.640;9.566;2022-10-31T09:02:44;23.95;;;18.33;;
36839;SDS011;24406;51.640;9.566;2022-10-31T09:07:47;27.00;;;19.45;;
36839;SDS011;24406;51.640;9.566;2022-10-31T09:12:55;28.30;;;19.20;;
36839;SDS011;24406;51.640;9.566;2022-10-31T09:18:00;26.10;;;18.10;;
36839;SDS011;24406;51.640;9.566;2022-10-31T09:23:05;23.80;;;18.17;;
36839;SDS011;24406;51.640;9.566;2022-10-31T09:28:12;22.50;;;18.75;;
36839;SDS011;24406;51.640;9.566;2022-10-31T09:33:17;24.90;;;19.98;;
36839;SDS011;24406;51.640;9.566;2022-10-31T09:38:28;29.17;;;22.00;;
36839;SDS011;24406;51.640;9.566;2022-10-31T09:43:33;21.67;;;18.95;;
36839;SDS011;24406;51.640;9.566;2022-10-31T09:48:44;23.58;;;19.60;;
36839;SDS011;24406;51.640;9.566;2022-10-31T09:53:57;33.22;;;17.42;;
36839;SDS011;24406;51.640;9.566;2022-10-31T09:59:03;18.42;;;16.40;;
36839;SDS011;24406;51.640;9.566;2022-10-31T10:04:11;24.95;;;16.77;;
36839;SDS011;24406;51.640;9.566;2022-10-31T10:09:37;25.50;;;16.42;;
36839;SDS011;24406;51.640;9.566;2022-10-31T10:15:13;19.15;;;15.80;;
36839;SDS011;24406;51.640;9.566;2022-10-31T10:20:25;14.77;;;13.38;;
36839;SDS011;24406;51.640;9.566;2022-10-31T10:25:33;14.57;;;11.00;;
36839;SDS011;24406;51.640;9.566;2022-10-31T10:30:42;14.80;;;12.77;;
36839;SDS011;24406;51.640;9.566;2022-10-31T10:35:46;15.30;;;12.63;;
36839;SDS011;24406;51.640;9.566;2022-10-31T10:40:49;14.55;;;11.55;;
36839;SDS011;24406;51.640;9.566;2022-10-31T10:45:57;14.73;;;12.52;;
36839;SDS011;24406;51.640;9.566;2022-10-31T10:51:23;15.65;;;13.30;;
36839;SDS011;24406;51.640;9.566;2022-10-31T10:56:36;27.13;;;14.47;;
36839;SDS011;24406;51.640;9.566;2022-10-31T11:01:42;16.90;;;13.45;;
36839;SDS011;24406;51.640;9.566;2022-10-31T11:06:44;17.33;;;12.77;;
36839;SDS011;24406;51.640;9.566;2022-10-31T11:11:47;22.58;;;12.68;;
36839;SDS011;24406;51.640;9.566;2022-10-31T11:16:50;15.43;;;11.63;;
36839;SDS011;24406;51.640;9.566;2022-10-31T11:21:54;22.42;;;12.93;;
36839;SDS011;24406;51.640;9.566;2022-10-31T11:27:13;14.77;;;13.07;;
36839;SDS011;24406;51.640;9.566;2022-10-31T11:32:19;18.40;;;12.43;;
36839;SDS011;24406;51.640;9.566;2022-10-31T11:37:21;23.08;;;13.98;;
36839;SDS011;24406;51.640;9.566;2022-10-31T11:42:25;21.45;;;14.55;;
36839;SDS011;24406;51.640;9.566;2022-10-31T11:47:29;18.02;;;12.65;;
36839;SDS011;24406;51.640;9.566;2022-10-31T11:52:32;22.63;;;14.23;;
36839;SDS011;24406;51.640;9.566;2022-10-31T11:57:42;17.63;;;13.23;;
36839;SDS011;24406;51.640;9.566;2022-10-31T12:02:46;23.65;;;13.68;;
36839;SDS011;24406;51.640;9.566;2022-10-31T12:07:47;17.92;;;12.52;;
36839;SDS011;24406;51.640;9.566;2022-10-31T12:12:53;21.23;;;11.70;;
36839;SDS011;24406;51.640;9.566;2022-10-31T12:18:04;22.95;;;13.07;;
36839;SDS011;24406;51.640;9.566;2022-10-31T12:23:19;23.63;;;14.35;;
36839;SDS011;24406;51.640;9.566;2022-10-31T12:28:30;21.30;;;14.00;;
36839;SDS011;24406;51.640;9.566;2022-10-31T12:33:45;20.88;;;14.30;;
36839;SDS011;24406;51.640;9.566;2022-10-31T12:39:02;21.95;;;14.55;;
36839;SDS011;24406;51.640;9.566;2022-10-31T12:44:17;26.17;;;14.95;;
36839;SDS011;24406;51.640;9.566;2022-10-31T12:49:41;24.05;;;15.55;;
36839;SDS011;24406;51.640;9.566;2022-10-31T12:54:52;20.10;;;13.35;;
36839;SDS011;24406;51.640;9.566;2022-10-31T13:00:02;22.88;;;14.95;;
36839;SDS011;24406;51.640;9.566;2022-10-31T13:05:10;21.40;;;15.00;;
36839;SDS011;24406;51.640;9.566;2022-10-31T13:10:16;23.30;;;15.07;;
36839;SDS011;24406;51.640;9.566;2022-10-31T13:15:22;25.92;;;13.73;;
36839;SDS011;24406;51.640;9.566;2022-10-31T13:20:27;29.25;;;15.57;;
36839;SDS011;24406;51.640;9.566;2022-10-31T13:25:31;24.50;;;15.40;;
36839;SDS011;24406;51.640;9.566;2022-10-31T13:30:36;23.25;;;16.13;;
36839;SDS011;24406;51.640;9.566;2022-10-31T13:35:43;28.85;;;14.52;;
36839;SDS011;24406;51.640;9.566;2022-10-31T13:40:50;25.02;;;15.98;;
36839;SDS011;24406;51.640;9.566;2022-10-31T13:45:55;22.65;;;16.33;;
36839;SDS011;24406;51.640;9.566;2022-10-31T13:50:59;25.00;;;17.05;;
36839;SDS011;24406;51.640;9.566;2022-10-31T13:56:03;25.15;;;16.52;;
36839;SDS011;24406;51.640;9.566;2022-10-31T14:01:12;23.88;;;16.35;;
36839;SDS011;24406;51.640;9.566;2022-10-31T14:06:17;28.92;;;17.38;;
36839;SDS011;24406;51.640;9.566;2022-10-31T14:11:21;25.77;;;16.13;;
36839;SDS011;24406;51.640;9.566;2022-10-31T14:16:25;26.60;;;16.85;;
36839;SDS011;24406;51.640;9.566;2022-10-31T14:21:30;27.45;;;17.33;;
36839;SDS011;24406;51.640;9.566;2022-10-31T14:26:36;29.08;;;16.92;;
36839;SDS011;24406;51.640;9.566;2022-10-31T14:31:39;28.33;;;16.30;;
36839;SDS011;24406;51.640;9.566;2022-10-31T14:36:45;25.92;;;16.33;;
36839;SDS011;24406;51.640;9.566;2022-10-31T14:41:58;23.30;;;16.65;;
36839;SDS011;24406;51.640;9.566;2022-10-31T14:47:10;30.13;;;16.70;;
36839;SDS011;24406;51.640;9.566;2022-10-31T14:52:19;25.52;;;16.13;;
36839;SDS011;24406;51.640;9.566;2022-10-31T14:57:21;26.40;;;16.00;;
36839;SDS011;24406;51.640;9.566;2022-10-31T15:02:25;24.17;;;15.23;;
36839;SDS011;24406;51.640;9.566;2022-10-31T15:07:30;25.15;;;15.95;;
36839;SDS011;24406;51.640;9.566;2022-10-31T15:12:32;23.67;;;14.68;;
36839;SDS011;24406;51.640;9.566;2022-10-31T15:17:34;22.52;;;15.75;;
36839;SDS011;24406;51.640;9.566;2022-10-31T15:22:37;26.17;;;15.40;;
36839;SDS011;24406;51.640;9.566;2022-10-31T15:27:39;28.17;;;15.38;;
36839;SDS011;24406;51.640;9.566;2022-10-31T15:32:43;29.77;;;16.15;;
36839;SDS011;24406;51.640;9.566;2022-10-31T15:37:46;25.33;;;16.80;;
36839;SDS011;24406;51.640;9.566;2022-10-31T15:42:49;28.95;;;16.55;;
36839;SDS011;24406;51.640;9.566;2022-10-31T15:47:54;24.45;;;17.00;;
36839;SDS011;24406;51.640;9.566;2022-10-31T15:52:58;22.75;;;14.45;;
36839;SDS011;24406;51.640;9.566;2022-10-31T15:58:01;26.02;;;15.43;;
36839;SDS011;24406;51.640;9.566;2022-10-31T16:03:05;28.95;;;15.98;;
36839;SDS011;24406;51.640;9.566;2022-10-31T16:08:26;24.23;;;15.13;;
36839;SDS011;24406;51.640;9.566;2022-10-31T16:13:36;21.75;;;15.13;;
36839;SDS011;24406;51.640;9.566;2022-10-31T16:18:39;23.02;;;14.27;;
36839;SDS011;24406;51.640;9.566;2022-10-31T16:23:45;21.73;;;14.57;;
36839;SDS011;24406;51.640;9.566;2022-10-31T16:28:51;22.30;;;13.90;;
36839;SDS011;24406;51.640;9.566;2022-10-31T16:34:01;28.02;;;15.07;;
36839;SDS011;24406;51.640;9.566;2022-10-31T16:39:05;27.13;;;14.93;;
36839;SDS011;24406;51.640;9.566;2022-10-31T16:44:14;25.48;;;14.35;;
36839;SDS011;24406;51.640;9.566;2022-10-31T16:49:18;26.70;;;14.73;;
36839;SDS011;24406;51.640;9.566;2022-10-31T16:54:22;20.92;;;13.57;;
36839;SDS011;24406;51.640;9.566;2022-10-31T16:59:23;23.92;;;13.43;;
36839;SDS011;24406;51.640;9.566;2022-10-31T17:04:25;19.70;;;12.48;;
36839;SDS011;24406;51.640;9.566;2022-10-31T17:09:27;28.40;;;13.60;;
36839;SDS011;24406;51.640;9.566;2022-10-31T17:14:29;20.98;;;12.82;;
36839;SDS011;24406;51.640;9.566;2022-10-31T17:19:30;20.77;;;11.48;;
36839;SDS011;24406;51.640;9.566;2022-10-31T17:24:35;22.95;;;11.55;;
36839;SDS011;24406;51.640;9.566;2022-10-31T17:29:36;17.30;;;10.57;;
36839;SDS011;24406;51.640;9.566;2022-10-31T17:34:38;20.73;;;11.48;;
36839;SDS011;24406;51.640;9.566;2022-10-31T17:39:41;18.27;;;10.25;;
36839;SDS011;24406;51.640;9.566;2022-10-31T17:44:42;17.63;;;10.68;;
36839;SDS011;24406;51.640;9.566;2022-10-31T17:49:44;17.48;;;10.63;;
36839;SDS011;24406;51.640;9.566;2022-10-31T17:54:46;18.33;;;10.20;;
36839;SDS011;24406;51.640;9.566;2022-10-31T17:59:48;14.50;;;10.50;;
36839;SDS011;24406;51.640;9.566;2022-10-31T18:04:49;18.70;;;11.20;;
36839;SDS011;24406;51.640;9.566;2022-10-31T18:09:52;24.15;;;11.43;;
36839;SDS011;24406;51.640;9.566;2022-10-31T18:14:54;22.77;;;10.98;;
36839;SDS011;24406;51.640;9.566;2022-10-31T18:19:55;14.80;;;10.00;;
36839;SDS011;24406;51.640;9.566;2022-10-31T18:24:58;22.30;;;11.18;;
36839;SDS011;24406;51.640;9.566;2022-10-31T18:30:00;17.35;;;10.32;;
36839;SDS011;24406;51.640;9.566;2022-10-31T18:35:01;22.27;;;10.43;;
36839;SDS011;24406;51.640;9.566;2022-10-31T18:40:05;15.35;;;9.63;;
36839;SDS011;24406;51.640;9.566;2022-10-31T18:45:07;18.10;;;10.35;;
36839;SDS011;24406;51.640;9.566;2022-10-31T18:50:09;18.30;;;11.10;;
36839;SDS011;24406;51.640;9.566;2022-10-31T18:55:12;14.88;;;10.00;;
36839;SDS011;24406;51.640;9.566;2022-10-31T19:00:14;15.95;;;10.30;;
36839;SDS011;24406;51.640;9.566;2022-10-31T19:05:17;19.00;;;10.50;;
36839;SDS011;24406;51.640;9.566;2022-10-31T19:10:21;12.63;;;10.07;;
36839;SDS011;24406;51.640;9.566;2022-10-31T19:15:23;20.58;;;12.43;;
36839;SDS011;24406;51.640;9.566;2022-10-31T19:20:25;19.42;;;11.00;;
36839;SDS011;24406;51.640;9.566;2022-10-31T19:25:28;19.50;;;12.15;;
36839;SDS011;24406;51.640;9.566;2022-10-31T19:30:29;14.15;;;11.27;;
36839;SDS011;24406;51.640;9.566;2022-10-31T19:35:31;16.98;;;12.13;;
36839;SDS011;24406;51.640;9.566;2022-10-31T19:40:34;15.50;;;11.18;;
36839;SDS011;24406;51.640;9.566;2022-10-31T19:45:36;14.25;;;11.07;;
36839;SDS011;24406;51.640;9.566;2022-10-31T19:50:37;32.83;;;20.10;;
36839;SDS011;24406;51.640;9.566;2022-10-31T19:55:41;18.52;;;12.20;;
36839;SDS011;24406;51.640;9.566;2022-10-31T20:00:42;21.58;;;15.55;;
36839;SDS011;24406;51.640;9.566;2022-10-31T20:05:44;19.98;;;14.35;;
36839;SDS011;24406;51.640;9.566;2022-10-31T20:10:53;21.10;;;12.95;;
36839;SDS011;24406;51.640;9.566;2022-10-31T20:15:56;25.67;;;13.68;;
36839;SDS011;24406;51.640;9.566;2022-10-31T20:21:02;22.63;;;14.20;;
36839;SDS011;24406;51.640;9.566;2022-10-31T20:26:07;27.08;;;17.83;;
36839;SDS011;24406;51.640;9.566;2022-10-31T20:31:13;29.60;;;17.90;;
36839;SDS011;24406;51.640;9.566;2022-10-31T20:36:16;21.48;;;15.20;;
36839;SDS011;24406;51.640;9.566;2022-10-31T20:41:21;27.45;;;18.00;;
36839;SDS011;24406;51.640;9.566;2022-10-31T20:46:23;28.13;;;17.38;;
36839;SDS011;24406;51.640;9.566;2022-10-31T20:51:26;28.10;;;15.85;;
36839;SDS011;24406;51.640;9.566;2022-10-31T20:56:32;24.25;;;14.82;;
36839;SDS011;24406;51.640;9.566;2022-10-31T21:01:33;22.33;;;13.82;;
36839;SDS011;24406;51.640;9.566;2022-10-31T21:06:36;29.33;;;15.52;;
36839;SDS011;24406;51.640;9.566;2022-10-31T21:11:39;25.08;;;16.25;;
36839;SDS011;24406;51.640;9.566;2022-10-31T21:16:41;22.73;;;14.60;;
36839;SDS011;24406;51.640;9.566;2022-10-31T21:21:42;26.88;;;16.23;;
36839;SDS011;24406;51.640;9.566;2022-10-31T21:26:46;28.40;;;17.50;;
36839;SDS011;24406;51.640;9.566;2022-10-31T21:31:49;28.65;;;18.88;;
36839;SDS011;24406;51.640;9.566;2022-10-31T21:36:51;31.00;;;17.30;;
36839;SDS011;24406;51.640;9.566;2022-10-31T21:41:54;34.70;;;18.85;;
36839;SDS011;24406;51.640;9.566;2022-10-31T21:46:55;30.23;;;20.83;;
36839;SDS011;24406;51.640;9.566;2022-10-31T21:51:57;31.63;;;19.00;;
36839;SDS011;24406;51.640;9.566;2022-10-31T21:57:00;30.35;;;17.38;;
36839;SDS011;24406;51.640;9.566;2022-10-31T22:02:02;31.63;;;21.80;;
36839;SDS011;24406;51.640;9.566;2022-10-31T22:07:04;37.42;;;21.35;;
36839;SDS011;24406;51.640;9.566;2022-10-31T22:12:06;32.03;;;20.20;;
36839;SDS011;24406;51.640;9.566;2022-10-31T22:17:08;29.27;;;19.10;;
36839;SDS011;24406;51.640;9.566;2022-10-31T22:22:10;24.15;;;17.55;;
36839;SDS011;24406;51.640;9.566;2022-10-31T22:27:13;35.85;;;19.33;;
36839;SDS011;24406;51.640;9.566;2022-10-31T22:32:15;27.30;;;18.00;;
36839;SDS011;24406;51.640;9.566;2022-10-31T22:37:16;28.23;;;19.52;;
36839;SDS011;24406;51.640;9.566;2022-10-31T22:42:19;25.33;;;17.48;;
36839;SDS011;24406;51.640;9.566;2022-10-31T22:47:21;25.10;;;16.48;;
36839;SDS011;24406;51.640;9.566;2022-10-31T22:52:22;30.00;;;19.52;;
36839;SDS011;24406;51.640;9.566;2022-10-31T22:57:25;34.75;;;20.40;;
36839;SDS011;24406;51.640;9.566;2022-10-31T23:02:26;33.75;;;19.73;;
36839;SDS011;24406;51.640;9.566;2022-10-31T23:07:28;34.80;;;19.95;;
36839;SDS011;24406;51.640;9.566;2022-10-31T23:12:31;37.90;;;23.63;;
36839;SDS011;24406;51.640;9.566;2022-10-31T23:17:50;36.45;;;23.02;;
36839;SDS011;24406;51.640;9.566;2022-10-31T23:22:51;36.55;;;23.50;;
36839;SDS011;24406;51.640;9.566;2022-10-31T23:27:54;54.13;;;31.92;;
36839;SDS011;24406;51.640;9.566;2022-10-31T23:32:56;52.80;;;31.58;;
36839;SDS011;24406;51.640;9.566;2022-10-31T23:37:57;52.15;;;29.42;;
36839;SDS011;24406;51.640;9.566;2022-10-31T23:43:00;38.65;;;24.75;;
36839;SDS011;24406;51.640;9.566;2022-10-31T23:48:02;42.78;;;26.60;;
36839;SDS011;24406;51.640;9.566;2022-10-31T23:53:04;48.47;;;31.15;;
36839;SDS011;24406;51.640;9.566;2022-10-31T23:58:06;59.47;;;35.80;;
